createdAt,value
2022-07-25T00:00:16.238Z,69.5
2022-07-25T00:05:16.296Z,69.9
2022-07-25T00:10:19.421Z,70.3
2022-07-25T00:15:19.422Z,69.6
2022-07-25T00:20:19.395Z,69.6
2022-07-25T00:25:19.376Z,69.5
2022-07-25T00:30:19.525Z,70.0
2022-07-25T00:35:19.475Z,69.8
2022-07-25T00:40:19.391Z,69.8
2022-07-25T00:45:19.462Z,69.7
2022-07-25T00:50:19.445Z,69.7
2022-07-25T00:55:16.327Z,70.2
2022-07-25T01:00:16.383Z,70.1
2022-07-25T01:05:19.498Z,70.1
2022-07-25T01:10:19.460Z,70.1
2022-07-25T01:15:19.558Z,69.6
2022-07-25T01:20:19.387Z,70.0
2022-07-25T01:25:19.637Z,69.9
2022-07-25T01:30:19.458Z,69.8
2022-07-25T01:35:19.544Z,69.8
2022-07-25T01:40:19.543Z,70.3
2022-07-25T01:45:16.459Z,69.7
2022-07-25T01:50:16.459Z,70.1
2022-07-25T01:55:19.637Z,70.0
2022-07-25T02:00:19.642Z,70.3
2022-07-25T02:05:19.590Z,70.1
2022-07-25T02:10:19.517Z,69.7
2022-07-25T02:15:19.502Z,67.9
2022-07-25T02:20:19.560Z,66.8
2022-07-25T02:25:19.656Z,67.4
2022-07-25T02:30:19.569Z,66.4
2022-07-25T02:35:19.667Z,67.1
2022-07-25T02:40:16.450Z,66.8
2022-07-25T02:45:16.495Z,65.5
2022-07-25T02:50:19.602Z,65.4
2022-07-25T02:55:19.711Z,65.4
2022-07-25T03:00:19.697Z,64.7
2022-07-25T03:05:19.631Z,65.2
2022-07-25T03:10:19.753Z,65.7
2022-07-25T03:15:19.687Z,66.5
2022-07-25T03:20:19.548Z,65.8
2022-07-25T03:25:21.682Z,65.8
2022-07-25T03:30:19.630Z,65.7
2022-07-25T03:35:16.651Z,66.0
2022-07-25T03:40:19.905Z,66.9
2022-07-25T03:45:19.796Z,65.7
2022-07-25T03:50:19.695Z,65.6
2022-07-25T03:55:19.664Z,66.1
2022-07-25T04:00:19.051Z,66.6
2022-07-25T04:05:18.975Z,66.0
2022-07-25T04:10:18.982Z,66.5
2022-07-25T04:15:18.907Z,66.6
2022-07-25T04:20:19.001Z,66.5
2022-07-25T04:25:18.940Z,66.9
2022-07-25T04:30:24.145Z,66.9
2022-07-25T04:35:19.037Z,67.3
2022-07-25T04:40:15.905Z,67.7
2022-07-25T04:45:17.699Z,67.1
2022-07-25T04:50:24.544Z,67.0
2022-07-25T04:55:19.076Z,67.4
2022-07-25T05:00:18.997Z,67.3
2022-07-25T05:05:21.742Z,67.2
2022-07-25T05:10:19.037Z,67.6
2022-07-25T05:15:19.058Z,68.0
2022-07-25T05:20:16.184Z,68.0
2022-07-25T05:25:19.075Z,68.5
2022-07-25T05:30:19.345Z,68.5
2022-07-25T05:35:15.977Z,68.9
2022-07-25T05:40:19.123Z,68.5
2022-07-25T05:45:19.071Z,68.9
2022-07-25T05:50:19.086Z,68.5
2022-07-25T05:55:19.164Z,68.9
2022-07-25T06:00:19.186Z,68.6
2022-07-25T06:05:19.217Z,68.7
2022-07-25T06:10:19.070Z,68.8
2022-07-25T06:15:22.853Z,68.8
2022-07-25T06:20:19.123Z,68.7
2022-07-25T06:25:15.979Z,68.3
2022-07-25T06:30:20.060Z,68.3
2022-07-25T06:35:19.196Z,68.3
2022-07-25T06:40:19.177Z,68.8
2022-07-25T06:45:19.192Z,68.7
2022-07-25T06:50:21.197Z,68.1
2022-07-25T06:55:19.166Z,68.3
2022-07-25T07:00:19.212Z,68.6
2022-07-25T07:05:19.210Z,69.5
2022-07-25T07:10:19.101Z,69.3
2022-07-25T07:15:19.126Z,69.6
2022-07-25T07:20:15.994Z,69.4
2022-07-25T07:25:16.117Z,69.3
2022-07-25T07:30:24.249Z,68.3
2022-07-25T07:35:19.224Z,68.2
2022-07-25T07:40:19.199Z,68.1
2022-07-25T07:45:19.205Z,67.9
2022-07-25T07:50:19.231Z,67.8
2022-07-25T07:55:19.260Z,68.1
2022-07-25T08:00:19.302Z,68.0
2022-07-25T08:05:19.202Z,68.4
2022-07-25T08:10:16.064Z,67.7
2022-07-25T08:15:19.198Z,67.6
2022-07-25T08:20:37.452Z,67.9
2022-07-25T08:25:19.308Z,67.8
2022-07-25T08:30:19.317Z,67.7
2022-07-25T08:35:19.282Z,67.6
2022-07-25T08:40:19.466Z,67.9
2022-07-25T08:45:19.326Z,68.2
2022-07-25T08:50:19.274Z,67.6
2022-07-25T08:55:19.462Z,67.5
2022-07-25T09:00:19.419Z,67.8
2022-07-25T09:05:16.344Z,67.7
2022-07-25T09:10:16.328Z,68.0
2022-07-25T09:15:19.416Z,67.6
2022-07-25T09:20:19.291Z,67.6
2022-07-25T09:25:19.375Z,67.5
2022-07-25T09:30:19.421Z,67.8
2022-07-25T09:35:19.358Z,67.2
2022-07-25T09:40:19.454Z,67.6
2022-07-25T09:45:19.660Z,67.9
2022-07-25T09:50:19.383Z,67.6
2022-07-25T09:55:19.390Z,67.5
2022-07-25T10:00:19.467Z,67.5
2022-07-25T10:05:19.392Z,67.5
2022-07-25T10:10:19.449Z,67.8
2022-07-25T10:15:19.367Z,67.8
2022-07-25T10:20:19.417Z,67.7
2022-07-25T10:25:19.469Z,68.1
2022-07-25T10:30:19.484Z,68.2
2022-07-25T10:35:19.611Z,68.3
2022-07-25T10:40:19.414Z,68.7
2022-07-25T10:45:19.414Z,69.2
2022-07-25T10:50:29.779Z,69.4
2022-07-25T10:55:16.364Z,70.0
2022-07-25T11:00:19.427Z,70.5
2022-07-25T11:05:19.512Z,70.7
2022-07-25T11:10:19.952Z,71.2
2022-07-25T11:15:19.522Z,71.9
2022-07-25T11:20:19.436Z,72.4
2022-07-25T11:25:19.492Z,72.6
2022-07-25T11:30:19.498Z,72.9
2022-07-25T11:35:19.403Z,73.5
2022-07-25T11:40:19.526Z,73.6
2022-07-25T11:45:16.590Z,73.8
2022-07-25T11:50:16.460Z,73.9
2022-07-25T11:55:19.541Z,74.0
2022-07-25T12:00:19.592Z,74.3
2022-07-25T12:05:19.597Z,74.4
2022-07-25T12:10:19.530Z,74.5
2022-07-25T12:15:19.600Z,74.6
2022-07-25T12:20:19.525Z,74.6
2022-07-25T12:25:19.620Z,74.7
2022-07-25T12:30:19.640Z,74.7
2022-07-25T12:35:16.505Z,74.8
2022-07-25T12:40:16.537Z,74.9
2022-07-25T12:45:19.662Z,75.0
2022-07-25T12:50:19.803Z,74.9
2022-07-25T12:55:19.605Z,75.0
2022-07-25T13:00:19.670Z,75.1
2022-07-25T13:05:19.626Z,75.2
2022-07-25T13:10:19.698Z,75.4
2022-07-25T13:15:19.704Z,75.7
2022-07-25T13:20:19.526Z,75.3
2022-07-25T13:25:19.530Z,75.5
2022-07-25T13:30:16.686Z,75.5
2022-07-25T13:35:20.437Z,73.4
2022-07-25T13:40:19.927Z,71.5
2022-07-25T13:45:19.626Z,71.4
2022-07-25T13:50:19.742Z,70.3
2022-07-25T13:55:19.736Z,70.6
2022-07-25T14:00:19.763Z,70.5
2022-07-25T14:05:19.750Z,70.4
2022-07-25T14:10:19.751Z,70.5
2022-07-25T14:15:19.759Z,70.2
2022-07-25T14:20:19.833Z,70.7
2022-07-25T14:25:16.593Z,70.5
2022-07-25T14:30:19.850Z,70.9
2022-07-25T14:35:19.871Z,71.1
2022-07-25T14:40:19.793Z,70.7
2022-07-25T14:45:19.796Z,70.8
2022-07-25T14:50:19.762Z,70.1
2022-07-25T14:55:19.797Z,70.7
2022-07-25T15:00:19.846Z,71.2
2022-07-25T15:05:19.901Z,70.9
2022-07-25T15:10:19.832Z,71.0
2022-07-25T15:15:16.836Z,70.8
2022-07-25T15:20:19.760Z,71.0
2022-07-25T15:25:59.283Z,71.0
2022-07-25T15:30:19.779Z,71.3
2022-07-25T15:35:19.814Z,71.3
2022-07-25T15:40:19.863Z,71.4
2022-07-25T15:45:35.191Z,71.3
2022-07-25T15:50:19.897Z,71.5
2022-07-25T15:55:19.857Z,71.8
2022-07-25T16:00:19.868Z,71.9
2022-07-25T16:05:19.926Z,71.7
2022-07-25T16:10:16.755Z,71.6
2022-07-25T16:15:16.829Z,71.2
2022-07-25T16:20:19.927Z,71.2
2022-07-25T16:25:19.896Z,71.8
2022-07-25T16:30:19.916Z,71.9
2022-07-25T16:35:19.995Z,72.0
2022-07-25T16:40:21.102Z,72.1
2022-07-25T16:45:19.960Z,71.9
2022-07-25T16:50:19.971Z,71.7
2022-07-25T16:55:19.965Z,72.2
2022-07-25T17:00:16.851Z,72.8
2022-07-25T17:05:16.913Z,72.9
2022-07-25T17:10:19.982Z,73.0
2022-07-25T17:15:20.107Z,73.6
2022-07-25T17:20:19.874Z,73.9
2022-07-25T17:25:20.039Z,74.3
2022-07-25T17:30:19.955Z,74.6
2022-07-25T17:35:19.991Z,75.1
2022-07-25T17:40:19.970Z,75.3
2022-07-25T17:45:20.045Z,75.1
2022-07-25T17:50:19.998Z,75.1
2022-07-25T17:55:16.934Z,74.8
2022-07-25T18:00:16.840Z,74.0
2022-07-25T18:05:20.115Z,74.2
2022-07-25T18:10:20.102Z,74.4
2022-07-25T18:15:20.127Z,74.5
2022-07-25T18:20:20.047Z,74.5
2022-07-25T18:25:19.982Z,74.1
2022-07-25T18:30:20.049Z,74.2
2022-07-25T18:35:19.970Z,74.0
2022-07-25T18:40:20.193Z,73.9
2022-07-25T18:45:20.047Z,74.0
2022-07-25T18:50:17.034Z,74.0
2022-07-25T18:55:20.040Z,74.2
2022-07-25T19:00:20.062Z,75.0
2022-07-25T19:05:20.166Z,75.6
2022-07-25T19:10:20.077Z,75.6
2022-07-25T19:15:20.367Z,75.5
2022-07-25T19:20:17.067Z,75.5
2022-07-25T19:25:20.169Z,75.4
2022-07-25T19:30:20.226Z,75.2
2022-07-25T19:35:25.831Z,75.5
2022-07-25T19:40:16.986Z,75.4
2022-07-25T19:45:17.120Z,75.3
2022-07-25T19:50:20.141Z,75.1
2022-07-25T19:55:20.184Z,75.4
2022-07-25T20:00:20.144Z,74.1
2022-07-25T20:05:20.250Z,73.7
2022-07-25T20:10:20.177Z,73.3
2022-07-25T20:15:20.262Z,73.5
2022-07-25T20:20:20.271Z,73.5
2022-07-25T20:25:20.444Z,73.3
2022-07-25T20:30:20.195Z,73.6
2022-07-25T20:35:17.157Z,73.5
2022-07-25T20:40:17.106Z,72.9
2022-07-25T20:45:20.315Z,72.2
2022-07-25T20:50:20.218Z,73.1
2022-07-25T20:55:20.289Z,73.3
2022-07-25T21:00:20.275Z,72.3
2022-07-25T21:05:20.294Z,72.1
2022-07-25T21:10:20.273Z,72.0
2022-07-25T21:15:20.251Z,72.3
2022-07-25T21:20:20.160Z,72.5
2022-07-25T21:25:17.166Z,72.2
2022-07-25T21:30:17.186Z,71.7
2022-07-25T21:35:20.395Z,71.2
2022-07-25T21:40:20.329Z,71.3
2022-07-25T21:45:20.278Z,71.1
2022-07-25T21:50:24.331Z,71.0
2022-07-25T21:55:20.358Z,71.3
2022-07-25T22:00:20.336Z,71.8
2022-07-25T22:05:20.380Z,71.1
2022-07-25T22:10:20.335Z,72.0
2022-07-25T22:15:20.403Z,71.9
2022-07-25T22:20:17.339Z,71.9
2022-07-25T22:25:17.292Z,71.7
2022-07-25T22:30:20.398Z,71.0
2022-07-25T22:35:20.285Z,70.0
2022-07-25T22:40:20.358Z,69.7
2022-07-25T22:45:20.672Z,69.7
2022-07-25T22:50:20.311Z,69.4
2022-07-25T22:55:20.358Z,69.3
2022-07-25T23:00:20.308Z,69.1
2022-07-25T23:05:20.418Z,68.4
2022-07-25T23:10:20.467Z,68.6
2022-07-25T23:15:17.356Z,68.5
2022-07-25T23:20:20.522Z,68.3
2022-07-25T23:25:20.528Z,68.4
2022-07-25T23:30:20.474Z,68.7
2022-07-25T23:35:20.469Z,68.9
2022-07-25T23:40:20.413Z,68.2
2022-07-25T23:45:20.498Z,68.9
2022-07-25T23:50:20.553Z,68.7
2022-07-25T23:55:20.383Z,68.7
